Time;durP1;ratioP1;P1;durP2;ratioP2;P2;SDS_P1;SDS_P2;PMS_P1;PMS_P2;Temp;Humidity;BMP_temperature;BMP_pressure;BME280_temperature;BME280_humidity;BME280_pressure;Samples;Min_cycle;Max_cycle;Signal;HPM_P1;HPM_P2
2023/03/26 00:02:11;;;;;;;20.50;3.70;;;;;;;;;;5027856;28;20028;-75
2023/03/26 00:04:37;;;;;;;25.60;4.17;;;;;;;;;;5024215;28;20034;-75
2023/03/26 00:07:03;;;;;;;27.87;4.37;;;;;;;;;;5021888;28;20089;-75
2023/03/26 00:09:30;;;;;;;24.27;3.57;;;;;;;;;;5036956;28;20037;-75
2023/03/26 00:11:56;;;;;;;29.07;4.47;;;;;;;;;;5035713;28;20358;-75
2023/03/26 00:14:22;;;;;;;24.87;3.90;;;;;;;;;;5036859;28;20048;-75
2023/03/26 00:16:48;;;;;;;21.13;4.07;;;;;;;;;;5032205;28;20039;-75
2023/03/26 00:19:15;;;;;;;28.03;4.87;;;;;;;;;;5037439;28;20097;-76
2023/03/26 00:21:41;;;;;;;28.03;4.47;;;;;;;;;;5035871;28;20039;-76
2023/03/26 00:24:08;;;;;;;36.17;4.10;;;;;;;;;;5018654;28;20033;-75
2023/03/26 00:26:37;;;;;;;23.97;3.57;;;;;;;;;;5035071;28;20025;-75
2023/03/26 00:29:03;;;;;;;31.43;4.57;;;;;;;;;;5025306;28;20158;-75
2023/03/26 00:31:36;;;;;;;22.63;4.77;;;;;;;;;;5018388;28;20029;-76
2023/03/26 00:34:04;;;;;;;24.53;3.57;;;;;;;;;;5019902;28;20037;-76
2023/03/26 00:36:30;;;;;;;22.73;3.87;;;;;;;;;;5033505;28;20033;-75
2023/03/26 00:38:57;;;;;;;24.63;4.10;;;;;;;;;;5034819;28;20058;-76
2023/03/26 00:41:24;;;;;;;24.73;4.43;;;;;;;;;;5029739;28;20053;-76
2023/03/26 00:43:52;;;;;;;22.50;4.43;;;;;;;;;;5031579;28;20108;-76
2023/03/26 00:46:18;;;;;;;19.37;3.53;;;;;;;;;;5029451;28;20041;-76
2023/03/26 00:48:45;;;;;;;26.87;5.17;;;;;;;;;;4998308;28;20029;-76
2023/03/26 00:51:14;;;;;;;26.37;3.87;;;;;;;;;;5025212;28;20599;-75
2023/03/26 00:53:40;;;;;;;30.97;4.47;;;;;;;;;;5013803;28;20034;-76
2023/03/26 00:56:06;;;;;;;20.70;4.77;;;;;;;;;;5025628;28;20124;-75
2023/03/26 00:58:33;;;;;;;25.53;5.07;;;;;;;;;;5024973;28;20053;-75
2023/03/26 01:01:01;;;;;;;24.13;4.00;;;;;;;;;;5012421;28;20025;-76
2023/03/26 01:03:28;;;;;;;26.03;3.73;;;;;;;;;;5027378;28;20059;-75
2023/03/26 01:06:03;;;;;;;26.17;4.20;;;;;;;;;;5030147;28;20048;-75
2023/03/26 01:08:37;;;;;;;21.67;4.43;;;;;;;;;;5016198;28;20456;-76
2023/03/26 01:11:26;;;;;;;23.23;5.03;;;;;;;;;;5028387;28;20041;-75
2023/03/26 01:13:55;;;;;;;18.87;4.47;;;;;;;;;;5014963;28;20125;-76
2023/03/26 01:16:26;;;;;;;23.83;4.07;;;;;;;;;;5013764;28;20087;-75
2023/03/26 01:18:53;;;;;;;28.33;4.37;;;;;;;;;;5026189;28;20029;-75
2023/03/26 01:21:28;;;;;;;19.60;4.53;;;;;;;;;;5013499;28;20903;-76
2023/03/26 01:23:58;;;;;;;20.30;3.97;;;;;;;;;;5028615;28;20021;-75
2023/03/26 01:26:24;;;;;;;26.00;4.83;;;;;;;;;;5024990;28;20029;-76
2023/03/26 01:28:55;;;;;;;28.57;5.37;;;;;;;;;;5013289;28;20026;-75
2023/03/26 01:31:29;;;;;;;29.27;4.73;;;;;;;;;;5023584;28;20033;-76
2023/03/26 01:34:15;;;;;;;22.30;4.50;;;;;;;;;;5012448;28;20037;-75
2023/03/26 01:36:45;;;;;;;34.17;5.07;;;;;;;;;;5005838;28;20061;-75
2023/03/26 01:39:26;;;;;;;32.33;5.17;;;;;;;;;;5027874;28;20072;-76
2023/03/26 01:42:14;;;;;;;25.07;5.03;;;;;;;;;;5027123;28;20022;-75
2023/03/26 01:44:43;;;;;;;21.97;4.67;;;;;;;;;;5013256;28;20094;-75
2023/03/26 01:47:11;;;;;;;25.53;5.43;;;;;;;;;;5012754;28;20033;-75
2023/03/26 01:49:37;;;;;;;21.77;5.03;;;;;;;;;;5012038;28;20294;-75
2023/03/26 01:52:05;;;;;;;24.57;6.03;;;;;;;;;;5015011;28;20041;-75
2023/03/26 01:54:32;;;;;;;26.93;5.87;;;;;;;;;;5025689;28;20596;-75
2023/03/26 01:57:10;;;;;;;22.30;4.63;;;;;;;;;;5028083;28;21569;-75
2023/03/26 01:59:44;;;;;;;30.90;4.83;;;;;;;;;;5009470;28;20580;-76
2023/03/26 02:02:29;;;;;;;22.13;4.40;;;;;;;;;;5025908;28;20034;-74
2023/03/26 02:05:14;;;;;;;21.90;3.77;;;;;;;;;;5027513;28;20092;-75
2023/03/26 02:07:46;;;;;;;27.00;5.90;;;;;;;;;;5016445;28;20033;-75
2023/03/26 02:10:29;;;;;;;23.38;4.93;;;;;;;;;;5011580;28;20087;-75
2023/03/26 02:12:55;;;;;;;23.45;5.25;;;;;;;;;;5009525;28;20033;-75
2023/03/26 02:15:21;;;;;;;28.27;4.80;;;;;;;;;;5027597;28;20030;-75
2023/03/26 02:17:48;;;;;;;26.07;3.83;;;;;;;;;;5014692;28;20064;-75
2023/03/26 02:20:17;;;;;;;22.87;4.17;;;;;;;;;;5014947;28;20497;-75
2023/03/26 02:22:44;;;;;;;17.63;4.07;;;;;;;;;;5026302;28;20025;-75
2023/03/26 02:25:15;;;;;;;26.00;4.03;;;;;;;;;;5026890;28;20473;-75
2023/03/26 02:27:41;;;;;;;18.17;3.40;;;;;;;;;;5012128;28;20032;-74
2023/03/26 02:30:08;;;;;;;26.77;4.87;;;;;;;;;;5010040;28;20037;-74
2023/03/26 02:32:37;;;;;;;25.73;4.63;;;;;;;;;;5014002;28;20061;-74
2023/03/26 02:35:04;;;;;;;20.80;3.60;;;;;;;;;;5013197;28;20067;-75
2023/03/26 02:37:35;;;;;;;18.40;3.60;;;;;;;;;;5026136;28;20022;-75
2023/03/26 02:40:01;;;;;;;23.43;3.57;;;;;;;;;;5026493;28;21634;-75
2023/03/26 02:42:27;;;;;;;23.90;3.97;;;;;;;;;;5012374;28;20052;-74
2023/03/26 02:44:53;;;;;;;20.57;3.80;;;;;;;;;;5010074;28;20026;-75
2023/03/26 02:47:22;;;;;;;22.30;3.67;;;;;;;;;;5027952;28;21807;-74
2023/03/26 02:49:50;;;;;;;21.03;3.77;;;;;;;;;;5014660;28;20045;-75
2023/03/26 02:52:17;;;;;;;19.03;3.77;;;;;;;;;;5016466;28;20068;-75
2023/03/26 02:54:43;;;;;;;15.80;3.27;;;;;;;;;;5035416;28;20021;-75
2023/03/26 02:57:09;;;;;;;30.57;3.87;;;;;;;;;;5035653;28;20029;-75
2023/03/26 02:59:35;;;;;;;18.77;4.33;;;;;;;;;;5036089;28;20079;-75
2023/03/26 03:02:01;;;;;;;16.53;3.53;;;;;;;;;;5036688;28;20068;-75
2023/03/26 03:04:27;;;;;;;11.00;3.53;;;;;;;;;;5019053;28;20052;-75
2023/03/26 03:06:56;;;;;;;16.83;3.57;;;;;;;;;;5019184;28;20339;-75
2023/03/26 03:09:23;;;;;;;19.17;3.60;;;;;;;;;;5035112;28;20454;-75
2023/03/26 03:11:52;;;;;;;14.93;3.20;;;;;;;;;;5017145;28;20367;-75
2023/03/26 03:14:18;;;;;;;17.20;3.70;;;;;;;;;;5019558;28;20350;-75
2023/03/26 03:16:44;;;;;;;15.30;3.37;;;;;;;;;;5019944;28;20036;-75
2023/03/26 03:19:14;;;;;;;22.80;3.63;;;;;;;;;;5031446;28;20022;-75
2023/03/26 03:21:40;;;;;;;21.87;3.40;;;;;;;;;;5028253;28;20022;-75
2023/03/26 03:24:07;;;;;;;16.10;3.80;;;;;;;;;;5029517;28;20405;-75
2023/03/26 03:26:35;;;;;;;12.67;3.00;;;;;;;;;;5036775;28;20525;-75
2023/03/26 03:29:01;;;;;;;21.27;3.83;;;;;;;;;;5028469;28;20052;-75
2023/03/26 03:31:29;;;;;;;20.97;4.03;;;;;;;;;;5036124;28;20033;-75
2023/03/26 03:33:55;;;;;;;19.07;2.87;;;;;;;;;;5031181;28;20026;-75
2023/03/26 03:36:22;;;;;;;18.40;3.80;;;;;;;;;;5013131;28;20033;-75
2023/03/26 03:38:49;;;;;;;21.23;3.53;;;;;;;;;;5036747;28;20057;-75
2023/03/26 03:41:17;;;;;;;21.20;3.53;;;;;;;;;;5030130;28;20029;-75
2023/03/26 03:43:43;;;;;;;18.07;4.53;;;;;;;;;;5018938;28;20025;-75
2023/03/26 03:46:11;;;;;;;13.20;2.67;;;;;;;;;;5034907;28;20041;-75
2023/03/26 03:48:40;;;;;;;11.57;2.87;;;;;;;;;;5035006;28;20033;-75
2023/03/26 03:51:06;;;;;;;13.70;2.70;;;;;;;;;;5034449;28;20128;-74
2023/03/26 03:53:35;;;;;;;19.73;2.70;;;;;;;;;;5035613;28;20120;-75
2023/03/26 03:56:01;;;;;;;10.90;2.20;;;;;;;;;;5033140;28;20026;-75
2023/03/26 03:58:29;;;;;;;17.77;2.73;;;;;;;;;;5037603;28;20052;-75
2023/03/26 04:01:03;;;;;;;11.97;2.70;;;;;;;;;;5018441;28;20075;-75
2023/03/26 04:03:29;;;;;;;16.20;2.40;;;;;;;;;;5018266;28;20053;-76
2023/03/26 04:05:55;;;;;;;19.60;3.90;;;;;;;;;;5023351;28;20036;-75
2023/03/26 04:08:22;;;;;;;17.00;3.17;;;;;;;;;;5035484;28;20025;-75
2023/03/26 04:10:48;;;;;;;18.07;3.53;;;;;;;;;;5036992;28;20084;-75
2023/03/26 04:13:14;;;;;;;22.00;3.53;;;;;;;;;;5040628;28;20355;-75
2023/03/26 04:15:41;;;;;;;16.03;3.47;;;;;;;;;;5004337;28;20366;-75
2023/03/26 04:18:11;;;;;;;18.10;3.43;;;;;;;;;;5015819;28;20063;-75
2023/03/26 04:20:39;;;;;;;25.77;4.43;;;;;;;;;;5017867;28;20047;-76
2023/03/26 04:23:06;;;;;;;18.37;4.00;;;;;;;;;;5030682;28;20025;-75
2023/03/26 04:25:35;;;;;;;21.87;3.40;;;;;;;;;;5023083;28;20025;-75
2023/03/26 04:28:05;;;;;;;16.27;3.07;;;;;;;;;;5019626;28;20022;-75
2023/03/26 04:30:34;;;;;;;18.23;3.10;;;;;;;;;;5034253;28;20422;-75
2023/03/26 04:33:05;;;;;;;16.77;3.40;;;;;;;;;;5018047;28;20037;-75
2023/03/26 04:35:35;;;;;;;26.17;3.37;;;;;;;;;;5020348;28;20025;-75
2023/03/26 04:38:05;;;;;;;22.27;3.57;;;;;;;;;;5034523;28;20021;-75
2023/03/26 04:40:33;;;;;;;21.80;4.10;;;;;;;;;;5023157;28;20058;-74
2023/03/26 04:43:01;;;;;;;14.87;3.07;;;;;;;;;;5051411;28;20055;-74
2023/03/26 04:45:30;;;;;;;17.43;3.17;;;;;;;;;;5033864;28;20025;-75
2023/03/26 04:48:01;;;;;;;20.47;3.43;;;;;;;;;;5042933;28;20480;-75
2023/03/26 04:50:27;;;;;;;15.53;2.93;;;;;;;;;;5021534;28;20056;-75
2023/03/26 04:52:55;;;;;;;16.57;3.17;;;;;;;;;;5017302;28;20025;-75
2023/03/26 04:55:33;;;;;;;18.70;4.13;;;;;;;;;;5036101;28;20056;-75
2023/03/26 04:58:02;;;;;;;20.33;3.00;;;;;;;;;;5025539;28;20025;-75
2023/03/26 05:00:28;;;;;;;14.27;3.00;;;;;;;;;;5021724;28;20072;-75
2023/03/26 05:02:56;;;;;;;14.50;3.67;;;;;;;;;;5034419;28;20021;-75
2023/03/26 05:05:22;;;;;;;19.60;2.97;;;;;;;;;;5037725;28;20335;-75
2023/03/26 05:07:49;;;;;;;14.57;2.80;;;;;;;;;;5033260;28;20023;-75
2023/03/26 05:10:15;;;;;;;16.80;3.13;;;;;;;;;;5023266;28;20029;-75
2023/03/26 05:12:41;;;;;;;15.67;3.10;;;;;;;;;;5020805;28;20450;-75
2023/03/26 05:15:08;;;;;;;23.00;3.73;;;;;;;;;;5026506;28;20095;-75
2023/03/26 05:17:40;;;;;;;18.70;3.20;;;;;;;;;;5025932;28;20088;-74
2023/03/26 05:20:06;;;;;;;20.08;3.67;;;;;;;;;;5033592;28;20088;-75
2023/03/26 05:22:32;;;;;;;12.07;2.87;;;;;;;;;;5034532;28;20087;-75
2023/03/26 05:24:58;;;;;;;16.73;3.77;;;;;;;;;;5022053;28;20017;-75
2023/03/26 05:27:24;;;;;;;20.03;4.20;;;;;;;;;;5038738;28;20040;-75
2023/03/26 05:29:50;;;;;;;16.60;3.30;;;;;;;;;;5017910;28;20055;-75
2023/03/26 05:32:19;;;;;;;10.63;2.63;;;;;;;;;;5017085;28;20093;-75
2023/03/26 05:34:45;;;;;;;10.57;3.00;;;;;;;;;;5018311;28;20030;-75
2023/03/26 05:37:10;;;;;;;19.80;3.77;;;;;;;;;;5019927;28;20049;-75
2023/03/26 05:39:36;;;;;;;18.97;3.70;;;;;;;;;;5027417;28;20022;-75
2023/03/26 05:42:03;;;;;;;17.27;3.37;;;;;;;;;;5026318;28;20439;-75
2023/03/26 05:44:31;;;;;;;17.40;2.97;;;;;;;;;;5024181;28;20053;-75
2023/03/26 05:46:57;;;;;;;15.43;3.50;;;;;;;;;;5026858;28;20034;-75
2023/03/26 05:49:23;;;;;;;19.17;4.47;;;;;;;;;;5049529;28;20035;-75
2023/03/26 05:51:49;;;;;;;18.63;4.67;;;;;;;;;;5022651;28;20045;-75
2023/03/26 05:54:15;;;;;;;20.83;4.90;;;;;;;;;;5037025;28;20037;-75
2023/03/26 05:56:41;;;;;;;18.57;3.70;;;;;;;;;;5038254;28;20021;-75
2023/03/26 05:59:07;;;;;;;22.43;4.03;;;;;;;;;;5039064;28;20605;-75
2023/03/26 06:01:33;;;;;;;17.87;4.40;;;;;;;;;;5036096;28;20021;-75
2023/03/26 06:03:59;;;;;;;17.50;4.47;;;;;;;;;;5036109;28;20029;-76
2023/03/26 06:06:25;;;;;;;23.70;7.00;;;;;;;;;;5039103;28;20377;-75
2023/03/26 06:08:51;;;;;;;24.40;7.77;;;;;;;;;;5023939;28;20065;-75
2023/03/26 06:11:18;;;;;;;20.47;6.27;;;;;;;;;;5026244;28;20039;-75
2023/03/26 06:13:44;;;;;;;23.33;5.90;;;;;;;;;;5034883;28;20511;-74
2023/03/26 06:16:11;;;;;;;18.23;4.07;;;;;;;;;;5026516;28;20053;-75
2023/03/26 06:18:38;;;;;;;13.17;3.90;;;;;;;;;;5020284;28;20063;-75
2023/03/26 06:21:04;;;;;;;17.47;4.07;;;;;;;;;;5036618;28;20081;-75
2023/03/26 06:23:31;;;;;;;24.20;4.87;;;;;;;;;;5036770;28;20032;-75
2023/03/26 06:25:57;;;;;;;17.70;5.00;;;;;;;;;;5019930;28;20025;-75
2023/03/26 06:28:25;;;;;;;16.37;4.93;;;;;;;;;;5019799;28;20029;-75
2023/03/26 06:30:51;;;;;;;18.47;4.50;;;;;;;;;;5036338;28;20071;-75
2023/03/26 06:33:17;;;;;;;21.93;5.67;;;;;;;;;;5034610;28;20426;-75
2023/03/26 06:35:44;;;;;;;24.03;5.90;;;;;;;;;;5038639;28;20346;-75
2023/03/26 06:38:10;;;;;;;17.43;5.13;;;;;;;;;;5021517;28;20656;-75
2023/03/26 06:40:36;;;;;;;24.43;5.07;;;;;;;;;;5036720;28;20072;-75
2023/03/26 06:43:02;;;;;;;20.20;5.33;;;;;;;;;;5040433;28;20430;-75
2023/03/26 06:45:31;;;;;;;24.77;6.07;;;;;;;;;;5032244;28;20022;-75
2023/03/26 06:47:59;;;;;;;23.03;5.30;;;;;;;;;;5027452;28;20033;-75
2023/03/26 06:50:26;;;;;;;21.13;4.50;;;;;;;;;;5031912;28;20054;-75
2023/03/26 06:52:55;;;;;;;23.03;4.60;;;;;;;;;;5010410;28;20045;-75
2023/03/26 06:55:21;;;;;;;26.00;6.20;;;;;;;;;;5017191;28;20029;-75
2023/03/26 06:57:51;;;;;;;17.53;3.80;;;;;;;;;;5009187;28;20041;-76
2023/03/26 07:00:17;;;;;;;18.63;4.97;;;;;;;;;;5011401;28;20022;-75
2023/03/26 07:02:43;;;;;;;16.37;4.13;;;;;;;;;;5012519;28;20446;-74
2023/03/26 07:05:11;;;;;;;23.00;4.73;;;;;;;;;;5022745;28;20035;-75
2023/03/26 07:07:37;;;;;;;23.33;5.23;;;;;;;;;;5021680;28;20048;-75
2023/03/26 07:10:04;;;;;;;28.10;5.50;;;;;;;;;;5016242;28;20043;-75
2023/03/26 07:12:30;;;;;;;17.13;3.73;;;;;;;;;;5026354;28;20083;-76
2023/03/26 07:14:56;;;;;;;19.83;4.33;;;;;;;;;;5026577;28;20447;-75
2023/03/26 07:17:22;;;;;;;22.37;5.57;;;;;;;;;;5010122;28;20029;-75
2023/03/26 07:19:48;;;;;;;23.90;4.33;;;;;;;;;;5024559;28;20044;-75
2023/03/26 07:22:19;;;;;;;21.93;4.50;;;;;;;;;;5020009;28;20033;-75
2023/03/26 07:24:45;;;;;;;19.77;4.73;;;;;;;;;;5023328;28;20025;-75
2023/03/26 07:27:11;;;;;;;19.83;4.37;;;;;;;;;;5010650;28;20035;-74
2023/03/26 07:29:44;;;;;;;23.33;4.43;;;;;;;;;;5012695;28;20033;-75
2023/03/26 07:32:17;;;;;;;21.27;4.50;;;;;;;;;;5025688;28;20059;-75
2023/03/26 07:34:56;;;;;;;17.00;3.73;;;;;;;;;;5026572;28;20076;-75
2023/03/26 07:37:45;;;;;;;17.53;3.80;;;;;;;;;;5010632;28;20039;-75
2023/03/26 07:40:30;;;;;;;19.90;4.17;;;;;;;;;;5011397;28;20783;-74
2023/03/26 07:43:10;;;;;;;19.37;4.67;;;;;;;;;;5024915;28;20029;-75
2023/03/26 07:45:40;;;;;;;21.00;3.77;;;;;;;;;;5021593;28;20052;-76
2023/03/26 07:48:17;;;;;;;23.20;5.20;;;;;;;;;;5028326;28;20048;-75
2023/03/26 07:50:43;;;;;;;20.53;5.10;;;;;;;;;;5025002;28;20025;-75
2023/03/26 07:53:11;;;;;;;27.23;5.70;;;;;;;;;;5025076;28;20519;-75
2023/03/26 07:55:41;;;;;;;18.73;4.57;;;;;;;;;;5020566;28;20037;-75
2023/03/26 07:58:16;;;;;;;18.87;4.20;;;;;;;;;;5009288;28;20049;-75
2023/03/26 08:00:57;;;;;;;18.67;4.30;;;;;;;;;;5012574;28;20022;-74
2023/03/26 08:03:26;;;;;;;20.00;4.10;;;;;;;;;;5010216;28;20030;-75
2023/03/26 08:06:00;;;;;;;23.13;5.23;;;;;;;;;;5025393;28;20813;-75
2023/03/26 08:08:32;;;;;;;20.50;4.33;;;;;;;;;;5012204;28;20047;-75
2023/03/26 08:11:17;;;;;;;15.35;4.80;;;;;;;;;;5012640;28;20025;-74
2023/03/26 08:13:52;;;;;;;24.43;5.97;;;;;;;;;;5011696;28;20470;-74
2023/03/26 08:16:18;;;;;;;18.47;4.23;;;;;;;;;;5025577;28;20095;-75
2023/03/26 08:19:03;;;;;;;20.10;4.47;;;;;;;;;;5008540;28;20116;-75
2023/03/26 08:21:38;;;;;;;20.53;4.40;;;;;;;;;;5025539;28;20026;-75
2023/03/26 08:24:16;;;;;;;22.17;4.93;;;;;;;;;;5023661;28;20029;-75
2023/03/26 08:26:50;;;;;;;16.97;4.30;;;;;;;;;;5024566;28;20044;-75
2023/03/26 08:29:35;;;;;;;13.73;4.77;;;;;;;;;;5024598;28;20104;-75
2023/03/26 08:32:02;;;;;;;23.30;5.00;;;;;;;;;;5014433;28;20029;-76
2023/03/26 08:34:29;;;;;;;15.20;4.47;;;;;;;;;;5024188;28;20099;-75
2023/03/26 08:36:55;;;;;;;19.77;4.83;;;;;;;;;;5012662;28;20171;-75
2023/03/26 08:39:21;;;;;;;15.60;4.60;;;;;;;;;;5009837;28;20116;-75
2023/03/26 08:42:06;;;;;;;16.63;4.40;;;;;;;;;;5008598;28;20037;-75
2023/03/26 08:44:50;;;;;;;20.87;5.23;;;;;;;;;;5022511;28;20030;-75
2023/03/26 08:47:26;;;;;;;22.43;4.53;;;;;;;;;;5013464;28;20037;-75
2023/03/26 08:49:55;;;;;;;16.03;4.13;;;;;;;;;;5011021;28;20132;-75
2023/03/26 08:52:23;;;;;;;18.83;4.53;;;;;;;;;;5027453;28;20033;-75
2023/03/26 08:54:52;;;;;;;12.77;3.40;;;;;;;;;;5034851;28;20076;-75
2023/03/26 08:57:36;;;;;;;19.40;4.07;;;;;;;;;;5033085;28;20030;-74
2023/03/26 09:00:12;;;;;;;14.50;2.90;;;;;;;;;;5033805;28;20397;-75
2023/03/26 09:02:48;;;;;;;13.57;2.93;;;;;;;;;;5023243;28;20063;-75
2023/03/26 09:05:21;;;;;;;8.13;1.90;;;;;;;;;;5015354;28;20328;-75
2023/03/26 09:08:05;;;;;;;7.60;2.38;;;;;;;;;;5039817;28;20029;-75
2023/03/26 09:10:31;;;;;;;9.07;2.07;;;;;;;;;;5033017;28;20057;-75
2023/03/26 09:13:09;;;;;;;9.73;2.50;;;;;;;;;;5008904;28;20041;-74
2023/03/26 09:15:58;;;;;;;8.73;2.47;;;;;;;;;;5037463;28;20029;-75
2023/03/26 09:18:42;;;;;;;6.93;2.13;;;;;;;;;;5034959;28;20025;-75
2023/03/26 09:21:08;;;;;;;11.00;2.17;;;;;;;;;;5019105;28;20040;-75
2023/03/26 09:23:37;;;;;;;13.33;2.93;;;;;;;;;;5037263;28;20025;-75
2023/03/26 09:26:10;;;;;;;9.83;2.80;;;;;;;;;;5037957;28;20130;-75
2023/03/26 09:28:36;;;;;;;8.52;2.60;;;;;;;;;;5032392;28;20033;-75
2023/03/26 09:31:02;;;;;;;12.00;2.67;;;;;;;;;;5022403;28;20331;-75
2023/03/26 09:33:47;;;;;;;7.10;2.53;;;;;;;;;;5034907;28;20383;-75
2023/03/26 09:36:19;;;;;;;8.73;2.10;;;;;;;;;;5038279;28;20105;-75
2023/03/26 09:38:49;;;;;;;11.38;2.63;;;;;;;;;;5040257;28;20411;-75
2023/03/26 09:41:30;;;;;;;11.17;2.70;;;;;;;;;;5031255;28;20083;-75
2023/03/26 09:44:14;;;;;;;6.83;1.87;;;;;;;;;;5037082;28;20385;-75
2023/03/26 09:46:56;;;;;;;7.00;1.87;;;;;;;;;;5032500;28;20029;-75
2023/03/26 09:49:45;;;;;;;7.87;1.77;;;;;;;;;;5008493;28;20071;-75
2023/03/26 09:52:14;;;;;;;4.77;1.30;;;;;;;;;;5010530;28;20041;-75
2023/03/26 09:54:43;;;;;;;4.30;1.73;;;;;;;;;;5037183;28;20025;-75
2023/03/26 09:57:27;;;;;;;8.90;2.53;;;;;;;;;;5034682;28;20021;-75
2023/03/26 10:00:12;;;;;;;8.90;2.67;;;;;;;;;;5036381;28;20021;-75
2023/03/26 10:02:45;;;;;;;13.00;4.40;;;;;;;;;;5027312;28;20018;-75
2023/03/26 10:05:12;;;;;;;;;;;;;;;;;;5033114;28;20021;-75
2023/03/26 10:07:38;;;;;;;8.27;3.07;;;;;;;;;;5037589;28;19999;-75
2023/03/26 10:10:17;;;;;;;8.53;2.20;;;;;;;;;;5037872;28;20107;-75
2023/03/26 10:12:47;;;;;;;6.97;1.80;;;;;;;;;;5033363;28;20164;-76
2023/03/26 10:15:26;;;;;;;8.67;3.10;;;;;;;;;;5029770;28;20025;-75
2023/03/26 10:18:01;;;;;;;5.47;1.60;;;;;;;;;;5031323;28;20043;-74
2023/03/26 10:21:06;;;;;;;5.83;1.80;;;;;;;;;;5020796;28;20438;-75
2023/03/26 10:23:32;;;;;;;6.13;2.10;;;;;;;;;;4938454;29;20027;-75
2023/03/26 10:26:07;;;;;;;7.93;1.90;;;;;;;;;;4957692;29;20046;-75
2023/03/26 10:28:48;;;;;;;8.37;2.17;;;;;;;;;;4989941;28;20038;-75
2023/03/26 10:31:24;;;;;;;7.43;2.73;;;;;;;;;;5035910;28;20033;-75
2023/03/26 10:33:56;;;;;;;5.83;2.23;;;;;;;;;;5034766;28;20029;-75
2023/03/26 10:36:22;;;;;;;11.18;2.85;;;;;;;;;;5019726;28;20034;-75
2023/03/26 10:39:08;;;;;;;12.37;3.50;;;;;;;;;;5037736;28;20434;-75
2023/03/26 10:41:43;;;;;;;10.20;5.87;;;;;;;;;;5036563;28;20025;-75
2023/03/26 10:44:09;;;;;;;9.77;4.40;;;;;;;;;;5034417;28;20541;-75
2023/03/26 10:46:46;;;;;;;8.80;3.27;;;;;;;;;;5035427;28;20021;-74
2023/03/26 10:49:31;;;;;;;7.70;2.30;;;;;;;;;;5027690;28;20052;-75
2023/03/26 10:52:15;;;;;;;7.07;2.30;;;;;;;;;;5019560;28;20025;-75
2023/03/26 10:54:41;;;;;;;8.30;3.03;;;;;;;;;;5025191;28;20033;-75
2023/03/26 10:57:33;;;;;;;7.03;2.40;;;;;;;;;;5025663;28;20053;-75
2023/03/26 11:00:13;;;;;;;8.55;2.53;;;;;;;;;;5013376;28;20358;-75
2023/03/26 11:02:43;;;;;;;7.33;3.33;;;;;;;;;;5038169;28;20370;-75
2023/03/26 11:05:40;;;;;;;5.60;1.70;;;;;;;;;;5036084;28;20323;-75
2023/03/26 11:08:16;;;;;;;5.50;2.20;;;;;;;;;;5030281;28;20089;-75
2023/03/26 11:10:50;;;;;;;7.23;3.10;;;;;;;;;;5026354;28;20033;-76
2023/03/26 11:13:24;;;;;;;2.83;1.60;;;;;;;;;;5028048;28;20327;-76
2023/03/26 11:16:02;;;;;;;6.73;2.00;;;;;;;;;;5035796;28;20029;-76
2023/03/26 11:18:34;;;;;;;6.80;2.60;;;;;;;;;;5027953;28;20029;-76
2023/03/26 11:21:00;;;;;;;7.05;2.22;;;;;;;;;;5036018;28;20144;-76
2023/03/26 11:23:29;;;;;;;3.50;1.77;;;;;;;;;;5026974;28;20061;-76
2023/03/26 11:26:04;;;;;;;7.67;2.20;;;;;;;;;;5013039;28;20426;-76
2023/03/26 11:28:30;;;;;;;4.57;2.10;;;;;;;;;;5002576;28;20018;-77
2023/03/26 11:30:56;;;;;;;6.47;2.00;;;;;;;;;;5010401;28;20052;-76
2023/03/26 11:33:24;;;;;;;9.83;2.10;;;;;;;;;;5032122;28;20026;-76
2023/03/26 11:35:52;;;;;;;5.73;2.20;;;;;;;;;;5033883;28;20033;-76
2023/03/26 11:38:39;;;;;;;10.00;2.40;;;;;;;;;;5028674;28;20029;-77
2023/03/26 11:41:25;;;;;;;3.60;1.57;;;;;;;;;;5029408;28;20461;-76
2023/03/26 11:43:53;;;;;;;5.77;2.10;;;;;;;;;;5015995;28;20018;-76
2023/03/26 11:46:21;;;;;;;4.93;1.87;;;;;;;;;;5031152;28;20025;-74
2023/03/26 11:48:56;;;;;;;4.27;2.43;;;;;;;;;;5018315;28;20063;-74
2023/03/26 11:51:42;;;;;;;7.77;2.40;;;;;;;;;;5027826;28;20025;-75
2023/03/26 11:54:10;;;;;;;7.40;2.80;;;;;;;;;;5029957;28;20025;-75
2023/03/26 11:56:52;;;;;;;3.73;1.53;;;;;;;;;;5034438;28;20030;-76
2023/03/26 11:59:34;;;;;;;6.63;2.22;;;;;;;;;;5035788;28;20060;-76
2023/03/26 12:02:09;;;;;;;7.00;3.23;;;;;;;;;;5018096;28;20462;-76
2023/03/26 12:04:58;;;;;;;9.20;3.13;;;;;;;;;;5010867;28;20035;-76
2023/03/26 12:07:32;;;;;;;9.03;3.03;;;;;;;;;;5033966;28;20105;-76
2023/03/26 12:10:03;;;;;;;6.23;2.90;;;;;;;;;;5034778;28;20037;-76
2023/03/26 12:12:31;;;;;;;8.37;2.90;;;;;;;;;;5034289;28;20113;-76
2023/03/26 12:15:00;;;;;;;6.80;3.73;;;;;;;;;;5019056;28;20034;-76
2023/03/26 12:17:26;;;;;;;6.43;2.30;;;;;;;;;;5018717;28;20030;-76
2023/03/26 12:19:52;;;;;;;10.70;3.90;;;;;;;;;;5016114;28;20033;-76
2023/03/26 12:22:35;;;;;;;8.67;2.07;;;;;;;;;;5013775;28;20038;-75
2023/03/26 12:25:20;;;;;;;6.85;2.58;;;;;;;;;;5019987;28;20589;-75
2023/03/26 12:27:52;;;;;;;8.07;2.27;;;;;;;;;;5025106;28;20465;-75
2023/03/26 12:30:18;;;;;;;3.13;1.33;;;;;;;;;;5017714;28;20039;-75
2023/03/26 12:32:45;;;;;;;6.87;2.20;;;;;;;;;;5034476;28;20056;-75
2023/03/26 12:35:18;;;;;;;7.10;2.40;;;;;;;;;;5034866;28;20033;-75
2023/03/26 12:37:45;;;;;;;6.73;2.27;;;;;;;;;;5033799;28;20022;-75
2023/03/26 12:40:26;;;;;;;7.93;2.77;;;;;;;;;;5034998;28;20430;-75
2023/03/26 12:42:54;;;;;;;6.03;2.57;;;;;;;;;;5032805;28;20025;-76
2023/03/26 12:45:28;;;;;;;7.13;2.23;;;;;;;;;;5035085;28;20083;-76
2023/03/26 12:47:55;;;;;;;8.57;2.33;;;;;;;;;;5022570;28;20052;-75
2023/03/26 12:50:23;;;;;;;10.00;3.00;;;;;;;;;;5016758;28;20021;-76
2023/03/26 12:52:55;;;;;;;6.37;2.73;;;;;;;;;;5023215;28;20092;-76
2023/03/26 12:55:27;;;;;;;7.82;2.45;;;;;;;;;;5025617;28;20052;-75
2023/03/26 12:57:59;;;;;;;6.90;2.15;;;;;;;;;;5024070;28;20116;-75
2023/03/26 13:00:25;;;;;;;8.10;1.73;;;;;;;;;;5009220;28;20068;-76
2023/03/26 13:02:54;;;;;;;6.37;2.90;;;;;;;;;;5006869;28;20040;-75
2023/03/26 13:05:19;;;;;;;3.90;1.60;;;;;;;;;;5009771;28;20127;-75
2023/03/26 13:08:05;;;;;;;6.10;2.60;;;;;;;;;;5024777;28;20059;-75
2023/03/26 13:10:53;;;;;;;7.20;3.00;;;;;;;;;;5022364;28;20091;-75
2023/03/26 13:13:35;;;;;;;8.17;3.27;;;;;;;;;;5022042;28;20116;-75
2023/03/26 13:16:07;;;;;;;5.90;2.70;;;;;;;;;;5025544;28;20038;-74
2023/03/26 13:18:43;;;;;;;8.13;3.60;;;;;;;;;;5021275;28;20473;-75
2023/03/26 13:21:12;;;;;;;9.03;4.03;;;;;;;;;;5010183;28;20108;-75
2023/03/26 13:23:38;;;;;;;7.20;3.40;;;;;;;;;;5024188;28;20036;-74
2023/03/26 13:26:40;;;;;;;6.07;4.13;;;;;;;;;;5005883;28;20025;-75
2023/03/26 13:29:06;;;;;;;5.90;2.90;;;;;;;;;;4963580;28;20483;-75
2023/03/26 13:31:53;;;;;;;5.70;2.43;;;;;;;;;;5011094;28;20840;-75
2023/03/26 13:34:32;;;;;;;4.30;2.60;;;;;;;;;;5023377;28;20029;-75
2023/03/26 13:36:58;;;;;;;4.63;1.90;;;;;;;;;;5005053;28;20080;-75
2023/03/26 13:39:33;;;;;;;2.17;1.40;;;;;;;;;;5025144;28;20080;-75
2023/03/26 13:42:02;;;;;;;4.40;1.57;;;;;;;;;;5009223;28;20037;-74
2023/03/26 13:44:35;;;;;;;2.10;1.60;;;;;;;;;;5015501;28;20059;-76
2023/03/26 13:47:06;;;;;;;4.07;1.47;;;;;;;;;;5010575;28;20528;-75
2023/03/26 13:49:36;;;;;;;2.63;1.20;;;;;;;;;;5010104;28;20040;-75
2023/03/26 13:52:06;;;;;;;4.00;1.70;;;;;;;;;;5022730;28;20129;-75
2023/03/26 13:54:48;;;;;;;7.27;1.63;;;;;;;;;;5007749;28;20037;-75
2023/03/26 13:57:14;;;;;;;3.40;1.60;;;;;;;;;;5026144;28;20041;-76
2023/03/26 13:59:49;;;;;;;3.50;1.40;;;;;;;;;;5024926;28;20029;-76
2023/03/26 14:02:31;;;;;;;5.30;1.37;;;;;;;;;;5008403;28;20026;-75
2023/03/26 14:05:03;;;;;;;2.73;1.33;;;;;;;;;;5021590;28;20033;-76
2023/03/26 14:07:38;;;;;;;2.70;1.30;;;;;;;;;;5015479;28;20048;-76
2023/03/26 14:10:12;;;;;;;2.27;1.40;;;;;;;;;;5015567;28;20049;-75
2023/03/26 14:12:38;;;;;;;2.10;1.20;;;;;;;;;;5013643;28;20609;-75
2023/03/26 14:15:06;;;;;;;3.93;1.40;;;;;;;;;;5024702;28;20125;-75
2023/03/26 14:17:41;;;;;;;2.40;1.47;;;;;;;;;;5014972;28;20040;-75
2023/03/26 14:20:19;;;;;;;1.63;1.07;;;;;;;;;;5031250;28;20033;-76
2023/03/26 14:23:03;;;;;;;3.17;1.17;;;;;;;;;;5025114;28;21576;-76
2023/03/26 14:25:30;;;;;;;2.90;1.40;;;;;;;;;;5027593;28;20030;-76
2023/03/26 14:28:05;;;;;;;2.07;1.03;;;;;;;;;;5023205;28;20029;-75
2023/03/26 14:30:34;;;;;;;2.17;1.10;;;;;;;;;;5013801;28;20030;-75
2023/03/26 14:33:12;;;;;;;3.33;0.90;;;;;;;;;;5015470;28;20033;-75
2023/03/26 14:35:54;;;;;;;1.80;1.00;;;;;;;;;;5010714;28;20033;-75
2023/03/26 14:38:28;;;;;;;1.93;0.77;;;;;;;;;;5009681;28;20875;-75
2023/03/26 14:41:05;;;;;;;2.07;1.13;;;;;;;;;;5013492;28;20135;-75
2023/03/26 14:43:50;;;;;;;2.40;0.90;;;;;;;;;;5012221;28;20037;-74
2023/03/26 14:46:22;;;;;;;3.17;1.07;;;;;;;;;;5026867;28;20037;-76
2023/03/26 14:48:54;;;;;;;2.97;0.80;;;;;;;;;;5009458;28;20112;-75
2023/03/26 14:51:40;;;;;;;2.03;1.10;;;;;;;;;;5015462;28;20037;-74
2023/03/26 14:54:13;;;;;;;2.23;0.80;;;;;;;;;;5019497;28;20025;-75
2023/03/26 14:56:50;;;;;;;5.00;0.60;;;;;;;;;;5035162;28;20131;-76
2023/03/26 14:59:22;;;;;;;1.73;0.57;;;;;;;;;;5034071;28;20018;-74
2023/03/26 15:02:07;;;;;;;0.80;0.60;;;;;;;;;;5034281;28;20021;-75